Worleytown, Pennsylvania
Current Conditions -  °F | °C
As of 5:53 AM on Friday 24 Oct 2014 (Local Time) from KHGR Reporting Station
Clear Clear  
Wind Chill: 52°   Ceiling: Unl
Heat Index: 52°   Visibility: 10mi
Dew Point: 42°   Wind: 12mph
Humidity: 69%   Direction: 300°WNW
Pressure: 29.98"   Gusts: NA
Location:  39.7874°N, 77.754°W
Report Text: KHGR 240953Z AUTO 30010KT 10SM CLR 11/06 A2998 RMK AO2 SLP160 T01110056
Loading
Personal Weather Stations






























Interactive Weather Map
Tropical Storm Tracking
New forecast layout! Learn more

10-Day Weather Forecast

Advertisements
Track Severe Weather on mobile